Aeroporto :
LOGIN :

Iscrizione | Disclaimer

   EN    FR    IT 

 










Sommario :    VFR   VFR Marginale   IFR   IFR Intensivo   IFR Molto Intensivo
Visibilità : 
Base nubi : 
>= 8 km
>= 3000ft
5 / 8 km
1000 / 3000 ft
1500m / 5 km
500 / 1000 ft
800 / 1500m
200 / 500 ft
< 800m
< 200 ft
Simboli :   Temporali  Nebbia  Neve Forte  Precipitazioni Forti  Vento > 20 kt
SIGMETs :   Varie  Temporali  Ghiacco  Turbolenza  Onda orograficha  Ceneri Vulcaniche







- Altitudine del aeroporto : 87 ft
- Codice IATA : FSC
- Carte del aeroporto


LFKF - Figari

ULTIMO METAR :
  • 100000Z AUTO 31032G47KT CAVOK 14/05 Q1014

METARs OBSOLETI :
  • 092330Z AUTO 31033G45KT CAVOK 14/05 Q1014
  • 092300Z AUTO 30030G42KT 9999 FEW033 15/04 Q1015
  • 092230Z AUTO 30024G37KT 9999 FEW030 BKN036 BKN042 15/05 Q1016
  • 092200Z AUTO 30019G30KT 270V330 9999 BKN039 BKN045 BKN066 15/04 Q1017
  • 092130Z AUTO 29024G39KT 260V320 9999 FEW038 SCT048 BKN062 15/05 Q1017 NOSIG
  • 092100Z AUTO 28019G32KT 260V320 9999 BKN049 OVC062 15/05 Q1017 BECMG 30025G45KT

TAF TAF LFKF
Valido dal 09 a 15 ore il 10 a 15 ore UTC


091400Z 0915/1015 28025G40KT 9999 SCT035
TEMPO 0915/0920 28030G50KT
BECMG 0921/0922 30025G45KT
BECMG 1007/1009 VRB10KT
TEMPO 1013/1015 30015G35KT
Nessun NOTAM noto per questo aeroporto.
4 SIGMETs conosciuti per la FIR Marseille (LFMM) :
 
Turbolenza severa
LFMM SIGMET 28 VALID 092200/100200 LFPW
LFMM MARSEILLE FIR/UIR SEV TURB FCST WI N4600 E00700 - N4400 E00700 - N4315 E00930 - N4145 E00745 - N4515 E00500 - N4600 E00700 FL330/390 MOV NE 10KT NC=
Turbolenza severa
LFMM SIGMET 27 VALID 092200/100200 LFPW
LFMM MARSEILLE FIR/UIR SEV TURB FCST WI N4400 E00700 - N4315 E00945 - N4115 E00945 - N4115 E00800 - N4300 E00515 - N4400 E00700 SFC/FL050 STNR NC=
Turbolenza severa
LFMM SIGMET 26 VALID 092200/100200 LFPW
LFMM MARSEILLE FIR/UIR SEV TURB FCST WI N4615 E00700 - N4400 E00700 - N4330 E00630 - N4445 E00530 - N4615 E00700 SFC/FL120 STNR NC=
Turbolenza severa
LFMM SIGMET 25 VALID 092200/100200 LFPW
LFMM MARSEILLE FIR/UIR SEV TURB FCST WI N4215 E00230 - N4345 E00245 - N4445 E00345 - N4430 E00415 - N4215 E00230 SFC/FL080 STNR NC=



MetMap, La meteo Aeronautica in un colpo d'occhio ! - Copyright ORBIFLY Dicembre 2007 - Disclaimer

ORBIFLY MET'MAP TEAM :

Programmazione e sviluppo : Alexandra Zaïnal
Concezione e sviluppo : Baudouin d'Aumeries
Co-Programmazione e sviluppo : Marc-Olivier Méhu
Supporto tecnico e logistico : Manuel Goepfert
Aiuto per la traduzione : Arnaldo La Scala

Contatto : metmap@orbifly.com




FONTI E CREDITI :

   NOAA